Array
(
    [0] => p
    [1] => TAF-100
)
- বাংলা English

** Distant Cautionary Signal No. ONE for the Maritime Ports due to Deep Depression over South East B

TAF

TAF VGHS 131700Z 1318/1424
30004KT 3000HZ NSC BECMG 1320/1322
VRB03KT 2500HZ NSC TEMPO 1323/1403
00000KT 1500BR FEW012 SCT100 BECMG 1404/1406
34006KT 2500BR/HZ FEW015 SCT100 BECMG 1408/1410
32006KT 3500HZ NSC BECMG 1418/1420
30004KT 2500BR NSC=

TAF VGEG 131700Z 1318/1424 00000KT 3200 HZ NSC
  BECMG 1322/1324 06003KT 2500 BR SCT015
  TEMPO 1323/1402 00000KT 1200 BR SCT012
  BECMG 1403/1405 35006KT 4000 HZ NSC
  BECMG 1416/1418 00000KT 3000 HZ NSC=

TAF VGSY 131000Z 1312/1418 22005KT 4500 HZ NSC
BECMG 1318/1320 00000KT 3000 HZ SCT015
BECMG 1323/1401 00000KT 2500 BR SCT012
BECMG 1403/1405 10005KT 3500 HZ NSC=